createdAt,value
2017-09-24T00:01:09.217Z,101465.91
2017-09-24T00:03:37.527Z,101461.33
2017-09-24T00:06:05.874Z,101451.24
2017-09-24T00:08:34.948Z,101454.10
2017-09-24T00:11:03.264Z,101451.77
2017-09-24T00:13:31.581Z,101451.16
2017-09-24T00:15:59.890Z,101449.58
2017-09-24T00:18:28.225Z,101447.08
2017-09-24T00:20:56.530Z,101446.83
2017-09-24T00:23:24.860Z,101453.17
2017-09-24T00:25:53.172Z,101447.72
2017-09-24T00:28:21.520Z,101444.34
2017-09-24T00:30:49.825Z,101447.03
2017-09-24T00:33:18.166Z,101454.67
2017-09-24T00:35:46.485Z,101442.80
2017-09-24T00:38:14.788Z,101444.77
2017-09-24T00:40:43.139Z,101442.79
2017-09-24T00:43:11.457Z,101436.92
2017-09-24T00:45:40.558Z,101438.75
2017-09-24T00:48:08.913Z,101440.53
2017-09-24T00:50:37.254Z,101437.45
2017-09-24T00:53:05.565Z,101431.94
2017-09-24T00:55:33.905Z,101432.02
2017-09-24T00:58:02.217Z,101436.87
2017-09-24T01:00:30.562Z,101437.81
2017-09-24T01:02:58.893Z,101434.46
2017-09-24T01:05:27.206Z,101441.66
2017-09-24T01:07:55.713Z,101435.54
2017-09-24T01:10:24.037Z,101441.47
2017-09-24T01:12:53.114Z,101431.42
2017-09-24T01:15:21.423Z,101434.71
2017-09-24T01:17:50.515Z,101431.80
2017-09-24T01:20:18.838Z,101431.38
2017-09-24T01:22:47.169Z,101424.95
2017-09-24T01:25:16.232Z,101426.79
2017-09-24T01:27:44.544Z,101428.16
2017-09-24T01:30:13.644Z,101429.03
2017-09-24T01:32:41.949Z,101427.27
2017-09-24T01:35:10.263Z,101431.34
2017-09-24T01:37:38.570Z,101431.70
2017-09-24T01:40:06.889Z,101426.05
2017-09-24T01:42:35.192Z,101426.09
2017-09-24T01:45:03.521Z,101419.59
2017-09-24T01:47:31.828Z,101413.06
2017-09-24T01:50:00.135Z,101419.76
2017-09-24T01:52:28.449Z,101419.02
2017-09-24T01:54:56.763Z,101413.22
2017-09-24T01:57:25.068Z,101415.12
2017-09-24T01:59:53.381Z,101419.27
2017-09-24T02:02:21.697Z,101426.08
2017-09-24T02:04:50.006Z,101432.34
2017-09-24T02:07:19.077Z,101427.88
2017-09-24T02:09:47.369Z,101431.75
2017-09-24T02:12:15.696Z,101430.81
2017-09-24T02:14:43.989Z,101428.36
2017-09-24T02:17:12.289Z,101428.48
2017-09-24T02:19:40.610Z,101428.73
2017-09-24T02:22:08.905Z,101423.27
2017-09-24T02:24:37.225Z,101421.56
2017-09-24T02:27:05.525Z,101429.84
2017-09-24T02:29:34.619Z,101435.06
2017-09-24T02:32:03.699Z,101438.16
2017-09-24T02:34:32.010Z,101435.17
2017-09-24T02:37:00.317Z,101434.06
2017-09-24T02:39:28.629Z,101434.53
2017-09-24T02:42:02.841Z,101437.37
2017-09-24T02:44:31.153Z,101434.45
2017-09-24T02:46:59.476Z,101435.19
2017-09-24T02:49:27.777Z,101430.55
2017-09-24T02:51:56.088Z,101424.69
2017-09-24T02:54:24.404Z,101423.25
2017-09-24T02:56:52.720Z,101418.84
2017-09-24T02:59:21.798Z,101419.38
2017-09-24T03:01:50.142Z,101416.07
2017-09-24T03:04:18.442Z,101419.80
2017-09-24T03:06:46.749Z,101414.51
2017-09-24T03:09:15.830Z,101415.92
2017-09-24T03:11:44.909Z,101412.66
2017-09-24T03:14:13.222Z,101416.05
2017-09-24T03:16:42.287Z,101421.62
2017-09-24T03:19:10.602Z,101421.74
2017-09-24T03:21:38.905Z,101419.94
2017-09-24T03:24:07.238Z,101423.11
2017-09-24T03:26:36.309Z,101418.72
2017-09-24T03:29:04.625Z,101414.60
2017-09-24T03:31:33.709Z,101417.96
2017-09-24T03:34:02.783Z,101417.42
2017-09-24T03:36:31.092Z,101416.55
2017-09-24T03:39:00.170Z,101421.17
2017-09-24T03:41:28.480Z,101420.63
2017-09-24T03:43:56.776Z,101417.42
2017-09-24T03:46:25.098Z,101414.53
2017-09-24T03:48:53.417Z,101411.31
2017-09-24T03:51:21.757Z,101406.84
2017-09-24T03:53:50.833Z,101405.45
2017-09-24T03:56:19.129Z,101407.89
2017-09-24T03:58:48.209Z,101412.22
2017-09-24T04:01:16.512Z,101409.98
2017-09-24T04:03:45.592Z,101413.00
2017-09-24T04:06:13.904Z,101415.31
2017-09-24T04:08:42.222Z,101417.56
2017-09-24T04:11:10.524Z,101408.05
2017-09-24T04:13:38.858Z,101407.91
2017-09-24T04:16:07.177Z,101415.12
2017-09-24T04:18:35.509Z,101414.88
2017-09-24T04:21:03.831Z,101402.31
2017-09-24T04:23:32.137Z,101410.91
2017-09-24T04:26:00.448Z,101408.89
2017-09-24T04:28:28.753Z,101408.94
2017-09-24T04:30:57.074Z,101409.56
2017-09-24T04:33:25.380Z,101413.31
2017-09-24T04:35:53.717Z,101415.80
2017-09-24T04:38:22.788Z,101421.01
2017-09-24T04:40:51.112Z,101416.66
2017-09-24T04:43:19.492Z,101420.55
2017-09-24T04:45:47.801Z,101418.38
2017-09-24T04:48:16.887Z,101410.28
2017-09-24T04:50:45.211Z,101414.07
2017-09-24T04:53:14.287Z,101410.98
2017-09-24T04:55:42.592Z,101413.78
2017-09-24T04:58:11.662Z,101415.17
2017-09-24T05:00:39.995Z,101408.98
2017-09-24T05:03:08.340Z,101411.25
2017-09-24T05:05:37.409Z,101411.49
2017-09-24T05:08:05.719Z,101409.23
2017-09-24T05:10:34.116Z,101407.42
2017-09-24T05:13:02.422Z,101404.22
2017-09-24T05:15:30.751Z,101410.76
2017-09-24T05:17:59.061Z,101413.64
2017-09-24T05:20:27.370Z,101413.22
2017-09-24T05:22:55.676Z,101405.22
2017-09-24T05:25:24.777Z,101405.22
2017-09-24T05:27:53.849Z,101403.55
2017-09-24T05:30:22.148Z,101404.83
2017-09-24T05:32:51.233Z,101412.86
2017-09-24T05:35:20.306Z,101418.19
2017-09-24T05:37:48.625Z,101419.77
2017-09-24T05:40:16.925Z,101410.88
2017-09-24T05:42:45.242Z,101414.58
2017-09-24T05:45:14.316Z,101406.37
2017-09-24T05:47:43.431Z,101406.55
2017-09-24T05:50:11.746Z,101415.53
2017-09-24T05:52:40.096Z,101411.03
2017-09-24T05:55:08.397Z,101410.66
2017-09-24T05:57:36.696Z,101405.76
2017-09-24T06:00:05.009Z,101398.75
2017-09-24T06:02:33.314Z,101410.53
2017-09-24T06:05:02.402Z,101408.27
2017-09-24T06:07:31.482Z,101404.89
2017-09-24T06:09:59.801Z,101410.95
2017-09-24T06:12:28.103Z,101413.44
2017-09-24T06:14:56.448Z,101415.45
2017-09-24T06:17:24.752Z,101418.39
2017-09-24T06:19:53.092Z,101416.95
2017-09-24T06:22:21.417Z,101412.36
2017-09-24T06:24:49.721Z,101413.31
2017-09-24T06:27:18.033Z,101418.38
2017-09-24T06:29:46.349Z,101414.19
2017-09-24T06:32:14.663Z,101418.28
2017-09-24T06:34:42.977Z,101418.89
2017-09-24T06:37:11.315Z,101424.09
2017-09-24T06:39:39.621Z,101424.85
2017-09-24T06:42:07.925Z,101424.45
2017-09-24T06:44:36.246Z,101422.39
2017-09-24T06:47:04.548Z,101424.36
2017-09-24T06:49:33.948Z,101424.02
2017-09-24T06:52:03.028Z,101426.86
2017-09-24T06:54:31.356Z,101428.16
2017-09-24T06:56:59.673Z,101422.28
2017-09-24T06:59:27.998Z,101425.95
2017-09-24T07:01:56.307Z,101437.16
2017-09-24T07:04:24.652Z,101429.14
2017-09-24T07:06:52.964Z,101428.86
2017-09-24T07:09:21.269Z,101432.82
2017-09-24T07:11:49.594Z,101428.12
2017-09-24T07:14:17.906Z,101432.64
2017-09-24T07:16:46.225Z,101434.27
2017-09-24T07:19:15.300Z,101432.23
2017-09-24T07:21:43.611Z,101430.63
2017-09-24T07:24:11.926Z,101428.91
2017-09-24T07:26:40.285Z,101422.21
2017-09-24T07:29:08.593Z,101420.52
2017-09-24T07:31:36.888Z,101426.74
2017-09-24T07:34:05.197Z,101425.09
2017-09-24T07:36:33.505Z,101427.89
2017-09-24T07:39:01.804Z,101431.93
2017-09-24T07:41:30.111Z,101439.43
2017-09-24T07:43:58.430Z,101436.31
2017-09-24T07:46:27.522Z,101435.08
2017-09-24T07:48:56.626Z,101437.59
2017-09-24T07:51:25.696Z,101438.83
2017-09-24T07:53:54.005Z,101432.76
2017-09-24T07:56:22.322Z,101431.11
2017-09-24T07:58:50.633Z,101436.16
2017-09-24T08:01:18.946Z,101433.55
2017-09-24T08:03:47.255Z,101438.60
2017-09-24T08:06:15.601Z,101434.54
2017-09-24T08:08:43.906Z,101441.34
2017-09-24T08:11:13.027Z,101441.78
2017-09-24T08:13:41.358Z,101447.78
2017-09-24T08:16:09.676Z,101452.08
2017-09-24T08:18:38.000Z,101451.25
2017-09-24T08:21:06.322Z,101450.23
2017-09-24T08:23:34.660Z,101450.45
2017-09-24T08:26:02.968Z,101448.39
2017-09-24T08:28:31.295Z,101448.33
2017-09-24T08:31:00.372Z,101449.09
2017-09-24T08:33:28.709Z,101455.44
2017-09-24T08:35:57.013Z,101453.64
2017-09-24T08:38:25.318Z,101448.88
2017-09-24T08:40:53.628Z,101446.86
2017-09-24T08:43:22.692Z,101450.66
2017-09-24T08:45:51.005Z,101452.22
2017-09-24T08:48:20.072Z,101456.68
2017-09-24T08:50:48.381Z,101453.38
2017-09-24T08:53:17.453Z,101452.05
2017-09-24T08:55:45.811Z,101461.55
2017-09-24T08:58:14.110Z,101458.16
2017-09-24T09:00:42.430Z,101462.31
2017-09-24T09:03:10.750Z,101460.70
2017-09-24T09:05:39.818Z,101464.11
2017-09-24T09:08:08.137Z,101453.73
2017-09-24T09:10:36.440Z,101467.25
2017-09-24T09:13:04.762Z,101468.73
2017-09-24T09:15:33.065Z,101465.93
2017-09-24T09:18:01.386Z,101464.05
2017-09-24T09:20:29.696Z,101465.37
2017-09-24T09:22:58.761Z,101465.52
2017-09-24T09:25:27.068Z,101470.52
2017-09-24T09:27:55.371Z,101471.29
2017-09-24T09:30:23.690Z,101466.16
2017-09-24T09:32:51.995Z,101466.66
2017-09-24T09:35:20.300Z,101459.66
2017-09-24T09:37:48.596Z,101462.22
2017-09-24T09:40:16.922Z,101459.70
2017-09-24T09:42:45.224Z,101459.08
2017-09-24T09:45:32.468Z,101458.97
2017-09-24T09:48:00.772Z,101464.33
2017-09-24T09:50:29.081Z,101458.29
2017-09-24T09:52:58.161Z,101454.94
2017-09-24T09:55:26.470Z,101457.83
2017-09-24T09:57:55.554Z,101458.55
2017-09-24T10:00:24.636Z,101452.31
2017-09-24T10:02:52.959Z,101456.41
2017-09-24T10:05:21.261Z,101461.33
2017-09-24T10:08:07.290Z,101462.97
2017-09-24T10:10:35.601Z,101462.84
2017-09-24T10:13:03.921Z,101460.37
2017-09-24T10:15:32.753Z,101470.06
2017-09-24T10:18:01.845Z,101472.75
2017-09-24T10:20:30.927Z,101464.95
2017-09-24T10:23:00.032Z,101464.47
2017-09-24T10:25:29.132Z,101471.67
2017-09-24T10:27:58.210Z,101465.27
2017-09-24T10:30:57.240Z,101468.10
2017-09-24T10:33:25.572Z,101467.84
2017-09-24T10:35:53.897Z,101462.38
2017-09-24T10:38:22.200Z,101468.98
2017-09-24T10:40:50.547Z,101462.34
2017-09-24T10:43:18.854Z,101462.89
2017-09-24T10:45:47.216Z,101469.73
2017-09-24T10:48:15.534Z,101467.05
2017-09-24T10:50:43.841Z,101468.52
2017-09-24T10:53:12.921Z,101477.07
2017-09-24T10:55:41.225Z,101468.36
2017-09-24T10:58:09.533Z,101470.42
2017-09-24T11:00:37.845Z,101478.56
2017-09-24T11:03:06.218Z,101475.75
2017-09-24T11:05:34.518Z,101475.19
2017-09-24T11:08:03.595Z,101475.65
2017-09-24T11:10:31.905Z,101470.84
2017-09-24T11:13:00.217Z,101473.77
2017-09-24T11:15:28.528Z,101472.42
2017-09-24T11:17:56.819Z,101477.69
2017-09-24T11:20:25.955Z,101485.41
2017-09-24T11:22:54.262Z,101480.92
2017-09-24T11:25:22.595Z,101478.59
2017-09-24T11:27:50.892Z,101479.08
2017-09-24T11:30:19.202Z,101473.66
2017-09-24T11:32:47.522Z,101475.12
2017-09-24T11:35:15.830Z,101477.86
2017-09-24T11:37:44.137Z,101480.78
2017-09-24T11:40:12.437Z,101481.78
2017-09-24T11:42:41.529Z,101470.74
2017-09-24T11:45:10.600Z,101477.31
2017-09-24T11:47:38.934Z,101479.75
2017-09-24T11:50:07.237Z,101481.45
2017-09-24T11:52:35.537Z,101483.68
2017-09-24T11:55:03.849Z,101477.93
2017-09-24T11:57:32.157Z,101478.48
2017-09-24T12:00:00.476Z,101479.38
2017-09-24T12:02:28.773Z,101483.16
2017-09-24T12:04:57.849Z,101482.58
2017-09-24T12:07:26.151Z,101477.23
2017-09-24T12:09:54.485Z,101474.08
2017-09-24T12:12:22.797Z,101479.84
2017-09-24T12:14:51.888Z,101481.94
2017-09-24T12:17:20.965Z,101479.77
2017-09-24T12:19:49.269Z,101479.70
2017-09-24T12:22:17.645Z,101484.13
2017-09-24T12:24:45.949Z,101481.66
2017-09-24T12:27:14.259Z,101481.84
2017-09-24T12:29:42.579Z,101483.89
2017-09-24T12:32:10.880Z,101486.64
2017-09-24T12:34:39.985Z,101482.20
2017-09-24T12:37:09.073Z,101481.27
2017-09-24T12:39:37.409Z,101484.34
2017-09-24T12:42:06.494Z,101490.14
2017-09-24T12:44:34.792Z,101477.72
2017-09-24T12:47:03.456Z,101483.65
2017-09-24T12:49:31.754Z,101487.94
2017-09-24T12:52:00.061Z,101482.09
2017-09-24T12:54:29.157Z,101491.67
2017-09-24T12:56:58.226Z,101488.78
2017-09-24T12:59:26.578Z,101494.05
2017-09-24T13:01:54.886Z,101495.33
2017-09-24T13:04:23.198Z,101493.77
2017-09-24T13:06:51.554Z,101494.27
2017-09-24T13:09:19.867Z,101488.98
2017-09-24T13:11:48.249Z,101491.63
2017-09-24T13:14:16.559Z,101485.69
2017-09-24T13:16:45.638Z,101480.98
2017-09-24T13:19:14.039Z,101484.52
2017-09-24T13:21:42.376Z,101476.16
2017-09-24T13:24:10.681Z,101486.59
2017-09-24T13:26:38.981Z,101479.04
2017-09-24T13:29:08.056Z,101482.56
2017-09-24T13:31:36.355Z,101484.87
2017-09-24T13:34:05.113Z,101481.32
2017-09-24T13:36:33.405Z,101483.20
2017-09-24T13:39:01.737Z,101487.63
2017-09-24T13:41:30.796Z,101488.73
2017-09-24T13:43:59.098Z,101486.70
2017-09-24T13:46:27.409Z,101487.05
2017-09-24T13:48:55.712Z,101489.95
2017-09-24T13:51:24.051Z,101481.74
2017-09-24T13:53:52.353Z,101479.17
2017-09-24T13:56:20.680Z,101481.43
2017-09-24T13:58:48.983Z,101479.72
2017-09-24T14:01:17.291Z,101485.08
2017-09-24T14:03:45.613Z,101487.81
2017-09-24T14:06:13.925Z,101475.68
2017-09-24T14:08:42.270Z,101479.01
2017-09-24T14:11:10.576Z,101481.42
2017-09-24T14:13:38.893Z,101477.05
2017-09-24T14:16:07.209Z,101481.40
2017-09-24T14:18:36.297Z,101483.55
2017-09-24T14:21:05.443Z,101483.29
2017-09-24T14:23:33.751Z,101490.53
2017-09-24T14:26:02.056Z,101487.81
2017-09-24T14:28:31.158Z,101483.52
2017-09-24T14:31:00.230Z,101486.78
2017-09-24T14:33:28.553Z,101492.92
2017-09-24T14:35:56.898Z,101496.17
2017-09-24T14:38:25.969Z,101497.45
2017-09-24T14:40:54.289Z,101494.81
2017-09-24T14:43:22.593Z,101499.86
2017-09-24T14:45:50.924Z,101498.81
2017-09-24T14:48:20.003Z,101498.48
2017-09-24T14:50:48.313Z,101503.19
2017-09-24T14:53:16.624Z,101493.72
2017-09-24T14:55:44.917Z,101499.46
2017-09-24T14:58:13.262Z,101499.50
2017-09-24T15:00:41.568Z,101497.63
2017-09-24T15:03:09.878Z,101500.52
2017-09-24T15:05:38.188Z,101499.52
2017-09-24T15:08:06.489Z,101500.93
2017-09-24T15:10:34.829Z,101499.11
2017-09-24T15:13:03.894Z,101499.39
2017-09-24T15:15:32.197Z,101499.25
2017-09-24T15:18:01.269Z,101497.15
2017-09-24T15:20:29.580Z,101512.12
2017-09-24T15:22:57.913Z,101504.16
2017-09-24T15:25:26.216Z,101507.71
2017-09-24T15:27:55.287Z,101512.42
2017-09-24T15:30:23.630Z,101508.23
2017-09-24T15:32:51.932Z,101512.80
2017-09-24T15:35:20.265Z,101514.14
2017-09-24T15:37:48.565Z,101511.63
2017-09-24T15:40:16.884Z,101516.03
2017-09-24T15:42:45.192Z,101520.32
2017-09-24T15:45:13.498Z,101521.17
2017-09-24T15:47:41.857Z,101519.49
2017-09-24T15:50:10.160Z,101524.98
2017-09-24T15:52:38.456Z,101519.87
2017-09-24T15:55:06.765Z,101520.33
2017-09-24T15:57:35.837Z,101519.53
2017-09-24T16:00:04.177Z,101521.41
2017-09-24T16:02:32.489Z,101526.03
2017-09-24T16:05:00.792Z,101525.47
2017-09-24T16:07:29.889Z,101528.31
2017-09-24T16:09:58.959Z,101523.20
2017-09-24T16:12:27.289Z,101525.88
2017-09-24T16:14:55.633Z,101532.14
2017-09-24T16:17:24.712Z,101531.65
2017-09-24T16:19:53.024Z,101533.22
2017-09-24T16:22:21.329Z,101532.17
2017-09-24T16:24:49.662Z,101530.84
2017-09-24T16:27:18.729Z,101535.34
2017-09-24T16:29:47.068Z,101532.43
2017-09-24T16:32:15.391Z,101531.58
2017-09-24T16:34:43.696Z,101538.20
2017-09-24T16:37:12.030Z,101542.03
2017-09-24T16:39:40.332Z,101539.02
2017-09-24T16:42:08.759Z,101539.94
2017-09-24T16:44:37.116Z,101545.88
2017-09-24T16:47:05.441Z,101544.42
2017-09-24T16:49:33.784Z,101542.55
2017-09-24T16:52:02.092Z,101541.59
2017-09-24T16:54:30.393Z,101538.83
2017-09-24T16:56:58.721Z,101542.91
2017-09-24T16:59:27.039Z,101540.44
2017-09-24T17:01:55.373Z,101543.72
2017-09-24T17:04:23.687Z,101544.53
2017-09-24T17:06:52.000Z,101547.64
2017-09-24T17:09:21.085Z,101557.34
2017-09-24T17:11:50.165Z,101557.20
2017-09-24T17:14:18.505Z,101548.52
2017-09-24T17:16:46.816Z,101546.23
2017-09-24T17:19:15.125Z,101551.21
2017-09-24T17:21:44.201Z,101548.37
2017-09-24T17:24:12.531Z,101544.27
2017-09-24T17:26:40.874Z,101550.66
2017-09-24T17:29:09.977Z,101561.08
2017-09-24T17:31:39.058Z,101560.21
2017-09-24T17:34:08.149Z,101571.11
2017-09-24T17:36:36.469Z,101562.63
2017-09-24T17:39:04.852Z,101572.00
2017-09-24T17:41:33.160Z,101567.57
2017-09-24T17:44:01.473Z,101569.22
2017-09-24T17:46:30.549Z,101564.14
2017-09-24T17:48:58.853Z,101570.31
2017-09-24T17:51:27.954Z,101570.91
2017-09-24T17:53:56.265Z,101572.37
2017-09-24T17:56:24.577Z,101575.47
2017-09-24T17:58:52.905Z,101580.64
2017-09-24T18:01:21.218Z,101572.40
2017-09-24T18:03:49.558Z,101575.92
2017-09-24T18:06:17.864Z,101581.66
2017-09-24T18:08:46.185Z,101574.12
2017-09-24T18:11:15.264Z,101578.37
2017-09-24T18:13:43.569Z,101574.12
2017-09-24T18:16:11.926Z,101577.91
2017-09-24T18:18:41.006Z,101581.64
2017-09-24T18:21:09.309Z,101582.64
2017-09-24T18:23:38.379Z,101586.98
2017-09-24T18:26:06.681Z,101585.02
2017-09-24T18:28:35.777Z,101581.42
2017-09-24T18:31:04.840Z,101579.69
2017-09-24T18:33:33.145Z,101585.20
2017-09-24T18:36:02.225Z,101590.07
2017-09-24T18:38:30.542Z,101587.64
2017-09-24T18:40:58.882Z,101587.45
2017-09-24T18:43:27.793Z,101590.25
2017-09-24T18:45:56.104Z,101594.20
2017-09-24T18:48:24.419Z,101591.68
2017-09-24T18:50:52.730Z,101596.56
2017-09-24T18:53:21.080Z,101602.48
2017-09-24T18:55:49.379Z,101602.73
2017-09-24T18:58:17.684Z,101598.30
2017-09-24T19:00:45.997Z,101597.98
2017-09-24T19:03:14.306Z,101598.92
2017-09-24T19:05:43.404Z,101605.72
2017-09-24T19:08:12.474Z,101597.97
2017-09-24T19:10:40.778Z,101607.77
2017-09-24T19:13:09.110Z,101602.77
2017-09-24T19:15:37.409Z,101606.59
2017-09-24T19:18:05.753Z,101606.05
2017-09-24T19:20:34.052Z,101610.58
2017-09-24T19:23:02.365Z,101601.74
2017-09-24T19:25:31.443Z,101600.78
2017-09-24T19:28:00.514Z,101609.84
2017-09-24T19:30:28.888Z,101607.48
2017-09-24T19:32:57.196Z,101609.13
2017-09-24T19:35:26.273Z,101597.02
2017-09-24T19:37:54.930Z,101605.02
2017-09-24T19:40:23.229Z,101607.55
2017-09-24T19:42:51.561Z,101597.78
2017-09-24T19:45:19.869Z,101598.40
2017-09-24T19:47:48.215Z,101596.37
2017-09-24T19:50:16.559Z,101599.45
2017-09-24T19:52:45.679Z,101604.44
2017-09-24T19:55:14.053Z,101611.36
2017-09-24T19:57:43.142Z,101614.98
2017-09-24T20:00:12.415Z,101609.23
2017-09-24T20:02:40.746Z,101619.55
2017-09-24T20:05:09.052Z,101618.95
2017-09-24T20:07:37.399Z,101619.41
2017-09-24T20:10:05.720Z,101620.64
2017-09-24T20:12:34.055Z,101615.77
2017-09-24T20:15:02.375Z,101626.74
2017-09-24T20:17:30.682Z,101624.47
2017-09-24T20:19:59.794Z,101628.66
2017-09-24T20:22:28.110Z,101621.69
2017-09-24T20:24:56.424Z,101622.08
2017-09-24T20:27:25.513Z,101617.05
2017-09-24T20:29:54.590Z,101620.06
2017-09-24T20:32:22.925Z,101620.16
2017-09-24T20:34:51.233Z,101617.27
2017-09-24T20:37:19.588Z,101621.39
2017-09-24T20:39:47.901Z,101607.70
2017-09-24T20:42:16.225Z,101602.91
2017-09-24T20:44:44.533Z,101608.16
2017-09-24T20:47:12.869Z,101616.87
2017-09-24T20:49:41.965Z,101613.37
2017-09-24T20:52:11.046Z,101608.23
2017-09-24T20:54:40.129Z,101607.41
2017-09-24T20:57:08.437Z,101607.78
2017-09-24T20:59:36.811Z,101606.83
2017-09-24T21:02:05.893Z,101607.11
2017-09-24T21:04:34.217Z,101613.34
2017-09-24T21:07:02.524Z,101609.93
2017-09-24T21:09:30.838Z,101606.72
2017-09-24T21:11:59.949Z,101609.53
2017-09-24T21:14:28.244Z,101617.81
2017-09-24T21:16:56.546Z,101613.77
2017-09-24T21:19:24.864Z,101607.48
2017-09-24T21:21:53.938Z,101606.75
2017-09-24T21:24:22.295Z,101615.34
2017-09-24T21:26:50.588Z,101610.63
2017-09-24T21:29:18.910Z,101598.05
2017-09-24T21:31:47.241Z,101610.17
2017-09-24T21:34:15.558Z,101611.12
2017-09-24T21:36:43.892Z,101611.75
2017-09-24T21:39:12.188Z,101613.53
2017-09-24T21:41:41.303Z,101608.19
2017-09-24T21:44:10.377Z,101611.41
2017-09-24T21:46:39.452Z,101604.14
2017-09-24T21:49:07.769Z,101611.69
2017-09-24T21:51:36.906Z,101599.08
2017-09-24T21:54:05.249Z,101601.80
2017-09-24T21:56:33.557Z,101608.53
2017-09-24T21:59:01.853Z,101605.31
2017-09-24T22:01:30.164Z,101602.21
2017-09-24T22:03:59.236Z,101604.81
2017-09-24T22:06:27.578Z,101601.91
2017-09-24T22:08:55.877Z,101598.25
2017-09-24T22:11:24.219Z,101601.05
2017-09-24T22:13:52.511Z,101600.23
2017-09-24T22:16:20.818Z,101597.44
2017-09-24T22:18:49.133Z,101600.48
2017-09-24T22:21:18.210Z,101599.02
2017-09-24T22:23:47.342Z,101603.25
2017-09-24T22:26:15.645Z,101602.44
2017-09-24T22:28:43.940Z,101595.41
2017-09-24T22:31:12.268Z,101589.72
2017-09-24T22:33:40.569Z,101589.02
2017-09-24T22:36:08.900Z,101586.28
2017-09-24T22:38:37.968Z,101588.08
2017-09-24T22:41:06.293Z,101582.13
2017-09-24T22:43:34.621Z,101583.84
2017-09-24T22:46:02.941Z,101584.31
2017-09-24T22:48:32.032Z,101581.17
2017-09-24T22:51:01.098Z,101579.86
2017-09-24T22:53:29.441Z,101575.44
2017-09-24T22:55:57.753Z,101570.38
2017-09-24T22:58:26.073Z,101568.73
2017-09-24T23:00:54.391Z,101569.00
2017-09-24T23:03:22.706Z,101570.84
2017-09-24T23:05:51.793Z,101572.70
2017-09-24T23:08:20.096Z,101567.69
2017-09-24T23:10:48.436Z,101567.38
2017-09-24T23:13:16.751Z,101566.59
2017-09-24T23:15:45.085Z,101569.59
2017-09-24T23:18:13.385Z,101564.56
2017-09-24T23:20:42.456Z,101569.99
2017-09-24T23:23:10.798Z,101560.64
2017-09-24T23:25:39.127Z,101564.32
2017-09-24T23:28:08.227Z,101553.77
2017-09-24T23:30:37.302Z,101555.17
2017-09-24T23:33:05.641Z,101556.47
2017-09-24T23:35:33.949Z,101561.02
2017-09-24T23:38:02.260Z,101558.60
2017-09-24T23:40:30.572Z,101559.84
2017-09-24T23:42:58.865Z,101553.38
2017-09-24T23:45:27.198Z,101553.48
2017-09-24T23:47:56.282Z,101559.82
2017-09-24T23:50:25.362Z,101555.09
2017-09-24T23:52:53.705Z,101562.49
2017-09-24T23:55:22.051Z,101566.05
2017-09-24T23:57:51.124Z,101564.32
